Portada
METAR-TAF:

METAR-TAF

Aeroports :

Ciutat del Cap, Sud-àfrica

latitud: 33-59S, longitud: 018-36E, altitud: 42 m

Observació

L'informe es va fer fa 1 hora i 7 minuts, a les 02:04 UTC
Vent 7 kt del Sud
Temperatura 12°C
Humitat 71%
Pressió 1020 hPa
Visibilitat 10 km o més
sense núvols per sota de 1500 mi sense presència de cumulonimbus.

METAR: FACT 220204Z 19007KT CAVOK 12/07 Q1020 NOSIG

Hora: 05:11 (03:11 UTC)

Pronòstic

L'informe es va fer fa 5 hores i 11 minuts, a les 22:00 UTC
Pronòstic vàlid del 22 a les 00 UTC al 23 a les 06 UTC
Vent 6 kt del Sud-Oest
Visibilitat 10 km o més
sense núvols per sota de 1500 mi sense presència de cumulonimbus.
Evolucionant progressivament
l' 22 a les 23 UTC al 23 a les 01 UTC
Vent 15 kt del Nord

TAF: FACT 212200Z 2200/2306 22006KT CAVOK TX28/2212Z TN08/2205Z BECMG 2223/2301 35015KT

Observacions i pronòstics meteorològics de més de 4000 aeroports (METAR i TAF).

Les estacions disponibles són els punts grocs i vermells al mapa.

Posi el ratolí al punt desitjat per veure el nom de l'estació.

Feu clic per veure les observacions i els pronòstics meteorològics.

Per canviar el mapa: feu clic els botons verds amb una creu de color negre per apropar; al botó verd amb un guió per allunyar la imatge; o en les fletxes verdes per a mapes adjacents.


METAR-TAF: